createdAt,value
2022-11-09T06:00:48.869Z,0.55
2022-11-09T06:05:52.433Z,0.85
2022-11-09T06:11:00.580Z,0.40
2022-11-09T06:16:07.382Z,0.82
2022-11-09T06:21:11.270Z,0.45
2022-11-09T06:26:15.200Z,0.40
2022-11-09T06:31:20.683Z,0.35
2022-11-09T06:36:24.396Z,0.22
2022-11-09T06:41:28.101Z,0.40
2022-11-09T06:46:33.308Z,0.40
2022-11-09T06:51:36.974Z,0.40
2022-11-09T06:56:40.510Z,0.82
2022-11-09T07:01:45.457Z,0.77
2022-11-09T07:06:49.069Z,0.30
2022-11-09T07:11:52.628Z,0.80
2022-11-09T07:16:57.922Z,0.60
2022-11-09T07:22:01.522Z,0.52
2022-11-09T07:27:05.299Z,0.68
2022-11-09T07:32:10.285Z,0.37
2022-11-09T07:37:14.063Z,0.13
2022-11-09T07:42:17.604Z,0.60
2022-11-09T07:47:23.965Z,0.17
2022-11-09T07:52:27.822Z,0.37
2022-11-09T07:57:31.361Z,0.10
2022-11-09T08:02:36.323Z,0.25
2022-11-09T08:07:39.929Z,0.10
2022-11-09T08:12:43.486Z,0.40
2022-11-09T08:17:48.440Z,0.25
2022-11-09T08:22:52.049Z,0.32
2022-11-09T08:27:57.393Z,0.62
2022-11-09T08:33:03.783Z,0.20
2022-11-09T08:38:07.608Z,0.30
2022-11-09T08:43:12.089Z,0.47
2022-11-09T08:48:17.109Z,0.20
2022-11-09T08:53:20.807Z,1.45
2022-11-09T08:58:24.551Z,0.50
2022-11-09T09:03:29.471Z,0.00
2022-11-09T09:08:33.405Z,0.60
2022-11-09T09:13:42.888Z,0.50
2022-11-09T09:18:49.516Z,0.25
2022-11-09T09:23:53.235Z,0.60
2022-11-09T09:28:56.811Z,0.53
2022-11-09T09:34:01.818Z,0.35
2022-11-09T09:39:05.749Z,0.17
2022-11-09T09:44:26.421Z,0.40
2022-11-09T09:49:33.113Z,0.37
2022-11-09T09:54:41.115Z,0.88
2022-11-09T09:59:48.584Z,0.32
2022-11-09T10:04:55.217Z,0.17
2022-11-09T10:10:28.431Z,0.20
2022-11-09T10:15:37.703Z,0.32
2022-11-09T10:21:10.502Z,0.37
2022-11-09T10:26:20.034Z,0.40
2022-11-09T10:31:25.150Z,0.20
2022-11-09T10:36:34.980Z,0.50
2022-11-09T10:41:42.100Z,1.17
2022-11-09T10:47:07.920Z,0.85
2022-11-09T10:52:42.996Z,0.98
2022-11-09T10:58:22.756Z,0.82
2022-11-09T11:03:45.820Z,0.10
2022-11-09T11:09:21.780Z,0.50
2022-11-09T11:14:45.236Z,0.55
2022-11-09T11:20:29.221Z,0.43
2022-11-09T11:26:21.882Z,0.30
2022-11-09T11:31:44.072Z,0.57
2022-11-09T11:37:21.483Z,0.40
2022-11-09T11:43:00.106Z,0.55
2022-11-09T11:48:58.938Z,0.43
2022-11-09T11:54:29.345Z,0.60
2022-11-09T12:00:09.952Z,0.43
2022-11-09T12:05:55.671Z,0.50
2022-11-09T12:11:26.008Z,0.50
2022-11-09T12:16:54.424Z,0.30
2022-11-09T12:22:22.296Z,0.40
2022-11-09T12:28:06.386Z,0.08
2022-11-09T12:33:43.703Z,0.75
2022-11-09T12:39:12.732Z,0.30
2022-11-09T12:44:41.147Z,0.55
2022-11-09T12:50:05.810Z,0.52
2022-11-09T13:00:55.581Z,0.30
2022-11-09T13:06:22.349Z,0.30
2022-11-09T13:11:47.253Z,0.77
2022-11-09T13:17:58.610Z,0.17
2022-11-09T13:29:24.642Z,0.47
2022-11-09T13:34:48.819Z,0.20
2022-11-09T13:40:45.755Z,0.68
2022-11-09T13:46:25.901Z,0.17
2022-11-09T13:51:49.291Z,0.15
2022-11-09T13:57:12.552Z,0.57
2022-11-09T14:02:34.477Z,0.20
2022-11-09T14:07:56.676Z,0.35
2022-11-09T14:13:46.140Z,0.55
2022-11-09T14:19:15.439Z,0.40
2022-11-09T14:24:39.241Z,0.35
2022-11-09T14:30:03.119Z,1.00
2022-11-09T14:35:28.368Z,0.35
2022-11-09T14:40:53.142Z,0.20
2022-11-09T14:46:19.202Z,0.00
2022-11-09T14:51:41.693Z,0.35
2022-11-09T14:57:04.146Z,0.10
2022-11-09T15:02:27.405Z,0.40
2022-11-09T15:07:49.464Z,0.43
2022-11-09T15:13:11.487Z,0.03
2022-11-09T15:18:37.759Z,0.10
2022-11-09T15:24:07.313Z,0.30
2022-11-09T15:29:36.752Z,0.45
2022-11-09T15:35:01.053Z,0.08
2022-11-09T15:40:25.619Z,0.30
2022-11-09T15:51:10.356Z,0.10
2022-11-09T15:56:32.444Z,0.00
2022-11-09T16:01:54.714Z,0.25
2022-11-09T16:07:18.248Z,0.77
2022-11-09T16:12:45.198Z,0.13
2022-11-09T16:18:08.235Z,1.00
2022-11-09T16:23:31.608Z,0.15
2022-11-09T16:28:53.148Z,0.80
2022-11-09T16:34:16.054Z,0.40
2022-11-09T16:39:40.352Z,0.68
2022-11-09T16:45:09.123Z,0.47
2022-11-09T16:50:31.003Z,0.57
2022-11-09T16:55:54.376Z,1.45
2022-11-09T17:01:19.268Z,1.15
2022-11-09T17:06:44.497Z,0.73
2022-11-09T17:12:08.246Z,1.33
2022-11-09T17:17:29.883Z,0.52
2022-11-09T17:22:51.850Z,0.77
2022-11-09T17:28:15.448Z,1.10
2022-11-09T17:33:37.286Z,1.73
2022-11-09T17:38:59.627Z,1.05
2022-11-09T17:44:22.544Z,0.68
2022-11-09T17:49:44.381Z,1.02
2022-11-09T17:55:06.723Z,1.42
2022-11-09T18:00:29.986Z,1.77
2022-11-09T18:05:51.640Z,1.42
2022-11-09T18:11:14.650Z,1.48
2022-11-09T18:16:38.277Z,1.35
2022-11-09T18:22:02.830Z,1.30
2022-11-09T18:27:30.137Z,4.22
2022-11-09T18:32:54.261Z,6.12
2022-11-09T18:38:20.021Z,5.10
2022-11-09T18:43:42.340Z,3.83
2022-11-09T18:49:11.540Z,2.65
2022-11-09T18:54:36.040Z,2.72
2022-11-09T18:59:57.726Z,1.77
2022-11-09T19:05:20.749Z,1.25
2022-11-09T19:10:42.822Z,2.70
2022-11-09T19:16:04.880Z,1.50
2022-11-09T19:21:40.488Z,2.00
2022-11-09T19:27:02.212Z,2.67
2022-11-09T19:32:23.725Z,2.70
2022-11-09T19:37:47.216Z,2.05
2022-11-09T19:43:09.179Z,1.77
2022-11-09T19:48:32.099Z,1.73
2022-11-09T19:53:56.667Z,1.90
2022-11-09T19:59:20.747Z,1.12
2022-11-09T20:04:43.546Z,2.22
2022-11-09T20:10:09.030Z,2.15
2022-11-09T20:15:31.210Z,1.55
2022-11-09T20:20:54.959Z,1.62
2022-11-09T20:26:18.167Z,2.08
2022-11-09T20:31:40.704Z,1.75
2022-11-09T20:37:02.331Z,1.25
2022-11-09T20:42:25.379Z,0.73
2022-11-09T20:48:07.610Z,1.65
2022-11-09T20:53:29.436Z,1.67
2022-11-09T20:58:52.614Z,1.02
2022-11-09T21:04:14.399Z,1.75
2022-11-09T21:09:36.155Z,1.67
2022-11-09T21:14:59.303Z,1.00
2022-11-09T21:20:21.263Z,1.08
2022-11-09T21:26:02.592Z,1.10
2022-11-09T21:31:25.855Z,0.85
2022-11-09T21:36:47.568Z,1.15
2022-11-09T21:42:11.447Z,1.00
2022-11-09T21:47:34.465Z,0.75
2022-11-09T21:52:56.509Z,0.90
2022-11-09T21:58:18.155Z,1.20
2022-11-09T22:03:41.564Z,1.25
2022-11-09T22:09:03.288Z,0.70
2022-11-09T22:14:42.300Z,0.95
2022-11-09T22:20:24.054Z,1.25
2022-11-09T22:25:48.064Z,0.73
2022-11-09T22:31:11.888Z,0.70
2022-11-09T22:36:35.112Z,0.60
2022-11-09T22:41:57.006Z,0.90
2022-11-09T22:47:18.738Z,0.75
2022-11-09T22:52:41.760Z,0.90
2022-11-09T22:58:03.822Z,0.70
2022-11-09T23:03:25.583Z,0.73
2022-11-09T23:08:48.944Z,0.55
2022-11-09T23:14:11.339Z,0.73
2022-11-09T23:19:32.968Z,0.57
2022-11-09T23:25:13.440Z,0.70
